NPV7592 LIPB-LIEE
Flight info
| Callsign | NPV7592 |
|---|---|
| Flight time | 1h 6m |
| Altitude | 45000 |
| Route | VIC DCT ELB DCT KOVAS |
| Aircraft | C750/M-SBDE3FGHRWXY/S |
Departure
| Time | 2026-04-22 16:37 |
|---|---|
| Airport | Bolzano Airport (LIPB) |
Arrival
| Time | 2026-04-22 17:43 |
|---|---|
| Airport | Cagliari Elmas Airport (LIEE) |
| Time | Latitude | Longitude | Altitude | Speed | Heading |
|---|---|---|---|---|---|
| 2026-04-22 16:09 | 46.46350 | 11.32895 | 784 ft | 0 kts | 11° |
| 2026-04-22 16:15 | 46.46350 | 11.32894 | 784 ft | 0 kts | 11° |
| 2026-04-22 16:32 | 46.46351 | 11.32891 | 784 ft | 0 kts | 330° |
| 2026-04-22 16:32 | 46.46360 | 11.32865 | 784 ft | 5 kts | 295° |
| 2026-04-22 16:33 | 46.46374 | 11.32855 | 784 ft | 3 kts | 5° |
| 2026-04-22 16:33 | 46.46405 | 11.32863 | 784 ft | 5 kts | 8° |
| 2026-04-22 16:33 | 46.46437 | 11.32870 | 784 ft | 4 kts | 8° |
| 2026-04-22 16:33 | 46.46465 | 11.32876 | 784 ft | 4 kts | 8° |
| 2026-04-22 16:34 | 46.46491 | 11.32882 | 784 ft | 4 kts | 8° |
| 2026-04-22 16:34 | 46.46515 | 11.32886 | 784 ft | 3 kts | 7° |
| 2026-04-22 16:34 | 46.46535 | 11.32890 | 784 ft | 3 kts | 8° |
| 2026-04-22 16:34 | 46.46555 | 11.32896 | 784 ft | 4 kts | 11° |
| 2026-04-22 16:35 | 46.46602 | 11.32910 | 784 ft | 9 kts | 11° |
| 2026-04-22 16:35 | 46.46664 | 11.32921 | 784 ft | 4 kts | 342° |
| 2026-04-22 16:35 | 46.46666 | 11.32916 | 784 ft | 2 kts | 313° |
| 2026-04-22 16:35 | 46.46681 | 11.32861 | 785 ft | 9 kts | 280° |
| 2026-04-22 16:36 | 46.46639 | 11.32801 | 784 ft | 2 kts | 190° |
| 2026-04-22 16:36 | 46.46634 | 11.32800 | 784 ft | 0 kts | 190° |
| 2026-04-22 16:36 | 46.46485 | 11.32760 | 785 ft | 72 kts | 189° |
| 2026-04-22 16:37 | 46.45667 | 11.32550 | 812 ft | 150 kts | 191° |
| 2026-04-22 16:37 | 46.44575 | 11.32229 | 1221 ft | 175 kts | 194° |
| 2026-04-22 16:37 | 46.43294 | 11.31752 | 1751 ft | 205 kts | 192° |
| 2026-04-22 16:37 | 46.41833 | 11.31406 | 2612 ft | 217 kts | 191° |
| 2026-04-22 16:38 | 46.40475 | 11.30384 | 3463 ft | 224 kts | 216° |
| 2026-04-22 16:38 | 46.39287 | 11.28973 | 4812 ft | 223 kts | 218° |
| 2026-04-22 16:38 | 46.37897 | 11.28000 | 5854 ft | 224 kts | 197° |
| 2026-04-22 16:38 | 46.36399 | 11.27372 | 6944 ft | 224 kts | 196° |
| 2026-04-22 16:39 | 46.34893 | 11.26706 | 8093 ft | 229 kts | 198° |
| 2026-04-22 16:39 | 46.33367 | 11.26002 | 9203 ft | 230 kts | 199° |
| 2026-04-22 16:39 | 46.31829 | 11.25296 | 10155 ft | 236 kts | 199° |
| 2026-04-22 16:39 | 46.30239 | 11.24585 | 10956 ft | 241 kts | 199° |
| 2026-04-22 16:40 | 46.28631 | 11.23864 | 11832 ft | 243 kts | 199° |
| 2026-04-22 16:40 | 46.27013 | 11.23125 | 12705 ft | 245 kts | 200° |
| 2026-04-22 16:40 | 46.23711 | 11.21643 | 14374 ft | 252 kts | 200° |
| 2026-04-22 16:41 | 46.22028 | 11.20885 | 15186 ft | 255 kts | 201° |
| 2026-04-22 16:41 | 46.20323 | 11.20113 | 16006 ft | 258 kts | 202° |
| 2026-04-22 16:41 | 46.18596 | 11.19332 | 16837 ft | 261 kts | 203° |
| 2026-04-22 16:41 | 46.16851 | 11.18546 | 17699 ft | 264 kts | 203° |
| 2026-04-22 16:42 | 46.15082 | 11.17751 | 18542 ft | 268 kts | 204° |
| 2026-04-22 16:42 | 46.13293 | 11.16950 | 19336 ft | 269 kts | 204° |
| 2026-04-22 16:42 | 46.11515 | 11.16152 | 20104 ft | 272 kts | 205° |
| 2026-04-22 16:42 | 46.09693 | 11.15333 | 20866 ft | 275 kts | 205° |
| 2026-04-22 16:43 | 46.07824 | 11.14595 | 21528 ft | 288 kts | 197° |
| 2026-04-22 16:43 | 46.05675 | 11.14861 | 21479 ft | 338 kts | 167° |
| 2026-04-22 16:43 | 46.03537 | 11.16698 | 21480 ft | 376 kts | 144° |
| 2026-04-22 16:43 | 46.01531 | 11.19303 | 21624 ft | 400 kts | 138° |
| 2026-04-22 16:44 | 45.99483 | 11.22181 | 21755 ft | 421 kts | 138° |
| 2026-04-22 16:44 | 45.97269 | 11.25068 | 21862 ft | 439 kts | 141° |
| 2026-04-22 16:44 | 45.94913 | 11.27940 | 22374 ft | 446 kts | 142° |
| 2026-04-22 16:44 | 45.92572 | 11.30894 | 23043 ft | 451 kts | 140° |
| 2026-04-22 16:45 | 45.90243 | 11.33964 | 23620 ft | 458 kts | 140° |
| 2026-04-22 16:45 | 45.87891 | 11.37016 | 24136 ft | 463 kts | 141° |
| 2026-04-22 16:45 | 45.85454 | 11.40078 | 24627 ft | 468 kts | 141° |
| 2026-04-22 16:45 | 45.82990 | 11.43177 | 25106 ft | 474 kts | 141° |
| 2026-04-22 16:46 | 45.80522 | 11.46344 | 25589 ft | 479 kts | 140° |
| 2026-04-22 16:46 | 45.78024 | 11.49556 | 26064 ft | 485 kts | 141° |
| 2026-04-22 16:46 | 45.75481 | 11.52775 | 26544 ft | 490 kts | 141° |
| 2026-04-22 16:46 | 45.72900 | 11.56011 | 27016 ft | 495 kts | 142° |
| 2026-04-22 16:47 | 45.70099 | 11.58898 | 27423 ft | 497 kts | 153° |
| 2026-04-22 16:47 | 45.67030 | 11.61115 | 27954 ft | 494 kts | 162° |
| 2026-04-22 16:47 | 45.63765 | 11.62631 | 28442 ft | 492 kts | 172° |
| 2026-04-22 16:47 | 45.60406 | 11.63420 | 28952 ft | 487 kts | 182° |
| 2026-04-22 16:48 | 45.57032 | 11.63479 | 29458 ft | 482 kts | 192° |
| 2026-04-22 16:48 | 45.53736 | 11.62831 | 29973 ft | 476 kts | 201° |
| 2026-04-22 16:48 | 45.50570 | 11.61548 | 30469 ft | 470 kts | 207° |
| 2026-04-22 16:48 | 45.47463 | 11.60092 | 30932 ft | 474 kts | 207° |
| 2026-04-22 16:49 | 45.44307 | 11.58634 | 31425 ft | 474 kts | 207° |
| 2026-04-22 16:49 | 45.41168 | 11.57218 | 32110 ft | 472 kts | 206° |
| 2026-04-22 16:49 | 45.38054 | 11.55801 | 32811 ft | 469 kts | 207° |
| 2026-04-22 16:49 | 45.34965 | 11.54356 | 33505 ft | 466 kts | 207° |
| 2026-04-22 16:50 | 45.31925 | 11.52944 | 34194 ft | 465 kts | 206° |
| 2026-04-22 16:50 | 45.28848 | 11.51546 | 34785 ft | 463 kts | 206° |
| 2026-04-22 16:50 | 45.25785 | 11.50155 | 35328 ft | 463 kts | 205° |
| 2026-04-22 16:50 | 45.22716 | 11.48744 | 35856 ft | 463 kts | 205° |
| 2026-04-22 16:51 | 45.19650 | 11.47335 | 36414 ft | 463 kts | 205° |
| 2026-04-22 16:51 | 45.16582 | 11.45938 | 36987 ft | 463 kts | 205° |
| 2026-04-22 16:51 | 45.13520 | 11.44547 | 37559 ft | 462 kts | 204° |
| 2026-04-22 16:51 | 45.10454 | 11.43150 | 38129 ft | 462 kts | 204° |
| 2026-04-22 16:52 | 45.07391 | 11.41753 | 38712 ft | 463 kts | 204° |
| 2026-04-22 16:52 | 45.04329 | 11.40361 | 39203 ft | 462 kts | 204° |
| 2026-04-22 16:52 | 45.01263 | 11.38973 | 39664 ft | 463 kts | 204° |
| 2026-04-22 16:52 | 44.98195 | 11.37583 | 40113 ft | 463 kts | 203° |
| 2026-04-22 16:53 | 44.95119 | 11.36189 | 40574 ft | 463 kts | 203° |
| 2026-04-22 16:53 | 44.92051 | 11.34800 | 41042 ft | 464 kts | 203° |
| 2026-04-22 16:53 | 44.88969 | 11.33408 | 41515 ft | 464 kts | 203° |
| 2026-04-22 16:53 | 44.85896 | 11.32022 | 41992 ft | 463 kts | 203° |
| 2026-04-22 16:54 | 44.82826 | 11.30638 | 42445 ft | 463 kts | 202° |
| 2026-04-22 16:54 | 44.79756 | 11.29254 | 42907 ft | 463 kts | 202° |
| 2026-04-22 16:54 | 44.76720 | 11.27890 | 43372 ft | 463 kts | 202° |
| 2026-04-22 16:54 | 44.73651 | 11.26511 | 43797 ft | 463 kts | 202° |
| 2026-04-22 16:55 | 44.70574 | 11.25130 | 44233 ft | 463 kts | 202° |
| 2026-04-22 16:55 | 44.67502 | 11.23753 | 44658 ft | 463 kts | 202° |
| 2026-04-22 16:55 | 44.64436 | 11.22380 | 45041 ft | 460 kts | 202° |
| 2026-04-22 16:55 | 44.61373 | 11.21010 | 45149 ft | 466 kts | 202° |
| 2026-04-22 16:56 | 44.58261 | 11.19614 | 45156 ft | 474 kts | 202° |
| 2026-04-22 16:56 | 44.51851 | 11.16758 | 45168 ft | 490 kts | 201° |
| 2026-04-22 16:57 | 44.45252 | 11.13822 | 45175 ft | 502 kts | 201° |
| 2026-04-22 16:57 | 44.38565 | 11.10857 | 45163 ft | 503 kts | 201° |
| 2026-04-22 16:58 | 44.33014 | 11.08396 | 45163 ft | 504 kts | 201° |
| 2026-04-22 16:58 | 44.25255 | 11.04969 | 45164 ft | 504 kts | 201° |
| 2026-04-22 16:59 | 44.18576 | 11.02024 | 45155 ft | 504 kts | 201° |
| 2026-04-22 16:59 | 44.11906 | 10.99092 | 45153 ft | 503 kts | 201° |
| 2026-04-22 17:00 | 44.05221 | 10.96160 | 45151 ft | 503 kts | 201° |
| 2026-04-22 17:00 | 43.95228 | 10.91787 | 45156 ft | 503 kts | 201° |
| 2026-04-22 17:01 | 43.88554 | 10.88879 | 45171 ft | 501 kts | 201° |
| 2026-04-22 17:01 | 43.81878 | 10.85976 | 45135 ft | 502 kts | 201° |
| 2026-04-22 17:02 | 43.75254 | 10.83099 | 45135 ft | 502 kts | 201° |
| 2026-04-22 17:02 | 43.68520 | 10.80179 | 45130 ft | 512 kts | 201° |
| 2026-04-22 17:03 | 43.61689 | 10.77234 | 45110 ft | 512 kts | 201° |
| 2026-04-22 17:03 | 43.54870 | 10.74291 | 45103 ft | 514 kts | 201° |
| 2026-04-22 17:04 | 43.48040 | 10.71357 | 45102 ft | 514 kts | 201° |
| 2026-04-22 17:04 | 43.41246 | 10.68442 | 45102 ft | 514 kts | 201° |
| 2026-04-22 17:05 | 43.34415 | 10.65519 | 45102 ft | 515 kts | 201° |
| 2026-04-22 17:05 | 43.27527 | 10.62577 | 45111 ft | 521 kts | 201° |
| 2026-04-22 17:06 | 43.20598 | 10.59628 | 45102 ft | 522 kts | 201° |
| 2026-04-22 17:06 | 43.13666 | 10.56682 | 45093 ft | 521 kts | 201° |
| 2026-04-22 17:07 | 43.06739 | 10.53746 | 45091 ft | 521 kts | 201° |
| 2026-04-22 17:07 | 42.99812 | 10.50817 | 45086 ft | 521 kts | 201° |
| 2026-04-22 17:08 | 42.92882 | 10.47893 | 45092 ft | 521 kts | 201° |
| 2026-04-22 17:08 | 42.87119 | 10.45467 | 45086 ft | 521 kts | 201° |
| 2026-04-22 17:09 | 42.80190 | 10.42557 | 45091 ft | 521 kts | 201° |
| 2026-04-22 17:09 | 42.73249 | 10.39646 | 45089 ft | 520 kts | 201° |
| 2026-04-22 17:10 | 42.66385 | 10.36543 | 45097 ft | 520 kts | 202° |
| 2026-04-22 17:10 | 42.59536 | 10.33485 | 45099 ft | 520 kts | 202° |
| 2026-04-22 17:11 | 42.52674 | 10.30386 | 45090 ft | 519 kts | 202° |
| 2026-04-22 17:11 | 42.45811 | 10.27324 | 45088 ft | 519 kts | 202° |
| 2026-04-22 17:12 | 42.38946 | 10.24248 | 45090 ft | 519 kts | 202° |
| 2026-04-22 17:12 | 42.32086 | 10.21194 | 45092 ft | 519 kts | 202° |
| 2026-04-22 17:13 | 42.25223 | 10.18137 | 45109 ft | 519 kts | 202° |
| 2026-04-22 17:13 | 42.18408 | 10.15114 | 45093 ft | 519 kts | 202° |
| 2026-04-22 17:14 | 42.11545 | 10.12074 | 45088 ft | 519 kts | 202° |
| 2026-04-22 17:14 | 42.04681 | 10.09041 | 45096 ft | 519 kts | 202° |
| 2026-04-22 17:15 | 41.97817 | 10.06015 | 45092 ft | 519 kts | 202° |
| 2026-04-22 17:15 | 41.90956 | 10.02998 | 45093 ft | 518 kts | 202° |
| 2026-04-22 17:16 | 41.84098 | 9.99987 | 45089 ft | 519 kts | 202° |
| 2026-04-22 17:16 | 41.77232 | 9.96981 | 45098 ft | 519 kts | 202° |
| 2026-04-22 17:17 | 41.70371 | 9.93984 | 45091 ft | 519 kts | 202° |
| 2026-04-22 17:17 | 41.63511 | 9.90993 | 45100 ft | 519 kts | 202° |
| 2026-04-22 17:18 | 41.56641 | 9.88005 | 45094 ft | 519 kts | 202° |
| 2026-04-22 17:18 | 41.49821 | 9.85046 | 45084 ft | 519 kts | 202° |
| 2026-04-22 17:19 | 41.36085 | 9.79105 | 45087 ft | 519 kts | 202° |
| 2026-04-22 17:20 | 41.29263 | 9.76168 | 45075 ft | 503 kts | 202° |
| 2026-04-22 17:20 | 41.22749 | 9.73366 | 45072 ft | 486 kts | 202° |
| 2026-04-22 17:21 | 41.13151 | 9.69243 | 45074 ft | 482 kts | 202° |
| 2026-04-22 17:22 | 41.06996 | 9.66623 | 44336 ft | 455 kts | 202° |
| 2026-04-22 17:22 | 41.03986 | 9.65322 | 43282 ft | 456 kts | 203° |
| 2026-04-22 17:22 | 40.97807 | 9.62679 | 40552 ft | 477 kts | 203° |
| 2026-04-22 17:23 | 40.94667 | 9.61351 | 39202 ft | 481 kts | 203° |
| 2026-04-22 17:23 | 40.88286 | 9.58634 | 36147 ft | 482 kts | 203° |
| 2026-04-22 17:23 | 40.85099 | 9.57278 | 34701 ft | 481 kts | 203° |
| 2026-04-22 17:24 | 40.81917 | 9.55931 | 33386 ft | 478 kts | 203° |
| 2026-04-22 17:24 | 40.78821 | 9.54630 | 32979 ft | 457 kts | 203° |
| 2026-04-22 17:24 | 40.75797 | 9.53346 | 32375 ft | 457 kts | 203° |
| 2026-04-22 17:24 | 40.72757 | 9.52044 | 31765 ft | 462 kts | 203° |
| 2026-04-22 17:25 | 40.69685 | 9.50743 | 31151 ft | 464 kts | 203° |
| 2026-04-22 17:25 | 40.66597 | 9.49452 | 30530 ft | 466 kts | 202° |
| 2026-04-22 17:25 | 40.63555 | 9.48173 | 29887 ft | 461 kts | 203° |
| 2026-04-22 17:25 | 40.60517 | 9.46888 | 29272 ft | 456 kts | 203° |
| 2026-04-22 17:26 | 40.57511 | 9.45619 | 28672 ft | 452 kts | 202° |
| 2026-04-22 17:26 | 40.54519 | 9.44361 | 28074 ft | 449 kts | 202° |
| 2026-04-22 17:26 | 40.51553 | 9.43117 | 27472 ft | 445 kts | 202° |
| 2026-04-22 17:26 | 40.48615 | 9.41883 | 26896 ft | 441 kts | 202° |
| 2026-04-22 17:27 | 40.45704 | 9.40659 | 26316 ft | 438 kts | 202° |
| 2026-04-22 17:27 | 40.42817 | 9.39451 | 25733 ft | 434 kts | 202° |
| 2026-04-22 17:27 | 40.39950 | 9.38251 | 25172 ft | 431 kts | 202° |
| 2026-04-22 17:27 | 40.37099 | 9.37058 | 24593 ft | 427 kts | 202° |
| 2026-04-22 17:28 | 40.34274 | 9.35876 | 24034 ft | 424 kts | 202° |
| 2026-04-22 17:28 | 40.31470 | 9.34704 | 23444 ft | 421 kts | 202° |
| 2026-04-22 17:28 | 40.28694 | 9.33544 | 22876 ft | 417 kts | 202° |
| 2026-04-22 17:28 | 40.25930 | 9.32394 | 22324 ft | 416 kts | 202° |
| 2026-04-22 17:29 | 40.23171 | 9.31246 | 21768 ft | 414 kts | 202° |
| 2026-04-22 17:29 | 40.20436 | 9.30107 | 21219 ft | 411 kts | 202° |
| 2026-04-22 17:29 | 40.17719 | 9.28977 | 20679 ft | 409 kts | 202° |
| 2026-04-22 17:29 | 40.15046 | 9.27866 | 20148 ft | 407 kts | 202° |
| 2026-04-22 17:30 | 40.12357 | 9.26750 | 19609 ft | 404 kts | 202° |
| 2026-04-22 17:30 | 40.09682 | 9.25640 | 19078 ft | 403 kts | 202° |
| 2026-04-22 17:30 | 40.07018 | 9.24536 | 18549 ft | 401 kts | 202° |
| 2026-04-22 17:30 | 40.04370 | 9.23438 | 17977 ft | 398 kts | 202° |
| 2026-04-22 17:31 | 40.01734 | 9.22349 | 17444 ft | 395 kts | 202° |
| 2026-04-22 17:31 | 39.99122 | 9.21268 | 16930 ft | 393 kts | 202° |
| 2026-04-22 17:31 | 39.96520 | 9.20194 | 16416 ft | 390 kts | 202° |
| 2026-04-22 17:31 | 39.93940 | 9.19129 | 15905 ft | 388 kts | 202° |
| 2026-04-22 17:32 | 39.91374 | 9.18069 | 15395 ft | 385 kts | 202° |
| 2026-04-22 17:32 | 39.88819 | 9.17015 | 14889 ft | 383 kts | 202° |
| 2026-04-22 17:32 | 39.86289 | 9.15977 | 14386 ft | 381 kts | 202° |
| 2026-04-22 17:32 | 39.83764 | 9.14936 | 13889 ft | 379 kts | 202° |
| 2026-04-22 17:33 | 39.82102 | 9.14251 | 13527 ft | 376 kts | 202° |
| 2026-04-22 17:33 | 39.78788 | 9.12890 | 12859 ft | 372 kts | 202° |
| 2026-04-22 17:33 | 39.76338 | 9.11889 | 12372 ft | 361 kts | 202° |
| 2026-04-22 17:33 | 39.74041 | 9.10956 | 11924 ft | 325 kts | 202° |
| 2026-04-22 17:34 | 39.71935 | 9.10090 | 11481 ft | 316 kts | 203° |
| 2026-04-22 17:34 | 39.69886 | 9.09241 | 11072 ft | 302 kts | 202° |
| 2026-04-22 17:34 | 39.67921 | 9.08436 | 10680 ft | 290 kts | 202° |
| 2026-04-22 17:34 | 39.66027 | 9.07664 | 10305 ft | 281 kts | 202° |
| 2026-04-22 17:35 | 39.64156 | 9.07047 | 9705 ft | 281 kts | 191° |
| 2026-04-22 17:35 | 39.62155 | 9.07065 | 8923 ft | 289 kts | 181° |
| 2026-04-22 17:35 | 39.60169 | 9.07181 | 8475 ft | 281 kts | 181° |
| 2026-04-22 17:35 | 39.58243 | 9.07235 | 8054 ft | 273 kts | 182° |
| 2026-04-22 17:36 | 39.56361 | 9.07257 | 7635 ft | 268 kts | 182° |
| 2026-04-22 17:36 | 39.54516 | 9.07291 | 7233 ft | 262 kts | 182° |
| 2026-04-22 17:36 | 39.52779 | 9.06850 | 6775 ft | 246 kts | 208° |
| 2026-04-22 17:36 | 39.51397 | 9.05649 | 6498 ft | 241 kts | 219° |
| 2026-04-22 17:37 | 39.50059 | 9.04370 | 6158 ft | 230 kts | 219° |
| 2026-04-22 17:37 | 39.48778 | 9.03161 | 5835 ft | 232 kts | 218° |
| 2026-04-22 17:37 | 39.47463 | 9.01932 | 5490 ft | 233 kts | 218° |
| 2026-04-22 17:37 | 39.46151 | 9.00701 | 5143 ft | 232 kts | 218° |
| 2026-04-22 17:38 | 39.44849 | 8.99463 | 4793 ft | 232 kts | 218° |
| 2026-04-22 17:38 | 39.43556 | 8.98245 | 4463 ft | 229 kts | 218° |
| 2026-04-22 17:38 | 39.42274 | 8.97042 | 4137 ft | 228 kts | 217° |
| 2026-04-22 17:38 | 39.41006 | 8.95854 | 3808 ft | 218 kts | 217° |
| 2026-04-22 17:39 | 39.39736 | 8.94663 | 3483 ft | 228 kts | 217° |
| 2026-04-22 17:39 | 39.38457 | 8.93476 | 3148 ft | 225 kts | 215° |
| 2026-04-22 17:39 | 39.35591 | 8.93378 | 2409 ft | 201 kts | 150° |
| 2026-04-22 17:40 | 39.34584 | 8.94465 | 2228 ft | 184 kts | 136° |
| 2026-04-22 17:40 | 39.33634 | 8.95584 | 1988 ft | 179 kts | 137° |
| 2026-04-22 17:40 | 39.32757 | 8.96599 | 1761 ft | 170 kts | 137° |
| 2026-04-22 17:40 | 39.31887 | 8.97607 | 1527 ft | 166 kts | 138° |
| 2026-04-22 17:41 | 39.31034 | 8.98595 | 1309 ft | 154 kts | 139° |
| 2026-04-22 17:41 | 39.30299 | 8.99449 | 1104 ft | 133 kts | 140° |
| 2026-04-22 17:41 | 39.29625 | 9.00227 | 937 ft | 128 kts | 140° |
| 2026-04-22 17:41 | 39.28960 | 9.00995 | 791 ft | 128 kts | 140° |
| 2026-04-22 17:42 | 39.28313 | 9.01754 | 621 ft | 124 kts | 140° |
| 2026-04-22 17:42 | 39.27678 | 9.02506 | 469 ft | 124 kts | 140° |
| 2026-04-22 17:42 | 39.27258 | 9.02999 | 377 ft | 123 kts | 140° |
| 2026-04-22 17:42 | 39.26395 | 9.04000 | 144 ft | 126 kts | 141° |
| 2026-04-22 17:43 | 39.25748 | 9.04739 | 20 ft | 117 kts | 143° |
| 2026-04-22 17:43 | 39.25250 | 9.05311 | 11 ft | 67 kts | 137° |
| 2026-04-22 17:43 | 39.25058 | 9.05534 | 13 ft | 14 kts | 134° |
| 2026-04-22 17:43 | 39.25057 | 9.05625 | 13 ft | 10 kts | 59° |
| 2026-04-22 17:44 | 39.25095 | 9.05709 | 12 ft | 11 kts | 63° |
| 2026-04-22 17:44 | 39.25136 | 9.05785 | 12 ft | 10 kts | 55° |
| 2026-04-22 17:44 | 39.25156 | 9.05858 | 12 ft | 8 kts | 94° |
| 2026-04-22 17:44 | 39.25124 | 9.05915 | 12 ft | 8 kts | 131° |
| 2026-04-22 17:45 | 39.25089 | 9.05968 | 12 ft | 7 kts | 133° |
| 2026-04-22 17:45 | 39.25055 | 9.05984 | 12 ft | 4 kts | 200° |
| 2026-04-22 17:45 | 39.25037 | 9.05964 | 12 ft | 3 kts | 226° |
| 2026-04-22 17:45 | 39.25026 | 9.05949 | 12 ft | 0 kts | 227° |